Buoy 21530

sailwx.info

Track history (hours):
 
Tides and Currents Weather Stations Pressure Air Temp Water Temp Dewpoint Dewpoint Depression Visibility Wind Speed Wind Dir Waves Ship Positions

Drifting buoy 21530

Last reported at 2017-Nov-18 14:00 UTC. Time now 2017-Nov-18 15:34 UTC.
Position N 23°25' W 146°16'.

Barometer 1011.2 mb
Water temperature 24.8 ° C

Date/timePositionNaut miles runAvg speedWind from/ knotsBaromVisibWave heightAir tempDewpointWater temp
2017-Nov-18 14:00N 23°25' W 146°16'1 0.3 1011.2 24.8
2017-Nov-18 12:00N 23°24' W 146°16'5 1.1 1011.3 24.9
2017-Nov-18 07:00N 23°20' W 146°11'1 1.1 1014.3 24.9
2017-Nov-18 06:00N 23°20' W 146°10'1 1.3 1014.3 24.9
2017-Nov-18 05:00N 23°20' W 146°09'1 0.6 1014.1 24.9
2017-Nov-18 04:00N 23°20' W 146°08'2 2.3 1013.6 24.8
2017-Nov-18 03:00N 23°19' W 146°06'0 0.0 1013.6 24.8
2017-Nov-18 02:00N 23°19' W 146°06'2 2.0 1013.0 24.7
2017-Nov-18 01:00N 23°18' W 146°04'1 0.6 1013.1 24.8
2017-Nov-18 00:00N 23°18' W 146°05'0 0.0 1013.3 24.8
2017-Nov-17 23:00N 23°18' W 146°05'7 1.7 1014.1 24.8
2017-Nov-17 19:00N 23°15' W 145°58'1 1.1 1016.8 24.8
2017-Nov-17 18:00N 23°15' W 145°57'1 0.8 1016.3 24.8
2017-Nov-17 17:00N 23°14' W 145°56'1 0.6 1015.8 24.8
2017-Nov-17 16:00N 23°14' W 145°56'1 1.3 1015.2 24.8
2017-Nov-17 15:00N 23°14' W 145°55'1 0.8 1014.8 24.8
2017-Nov-17 14:00N 23°13' W 145°54'0 0.0 1015.0 24.8
2017-Nov-17 13:00N 23°13' W 145°54'4 4.2 1015.1 24.8
2017-Nov-17 12:00N 23°10' W 145°52'0 0.0 1015.6 24.9
2017-Nov-17 07:00N 23°10' W 145°52'2 1.6 1017.8 24.7
2017-Nov-17 06:00N 23°08' W 145°50'1 0.6 1017.6 24.7
2017-Nov-17 05:00N 23°08' W 145°50'2 1.6 1017.3 24.6
2017-Nov-17 04:00N 23°07' W 145°49'1 1.3 1016.6 24.6
2017-Nov-17 03:00N 23°06' W 145°48'0 0.0 1016.0 24.6
2017-Nov-17 02:00N 23°06' W 145°48'1 1.3 1015.6 24.6
2017-Nov-17 01:00N 23°05' W 145°47'1 0.8 1015.4 24.6
2017-Nov-17 00:00N 23°05' W 145°47'4 1.0 1015.4 24.6
2017-Nov-16 20:00N 23°04' W 145°43'1 1.3 1017.9 24.5
2017-Nov-16 19:00N 23°04' W 145°42'1 0.6 1018.1 24.5
2017-Nov-16 18:00N 23°04' W 145°41'1 0.8 1017.5 24.5
2017-Nov-16 17:00N 23°03' W 145°41'2 1.7 1016.9 24.5
2017-Nov-16 16:00N 23°03' W 145°39'1 0.8 1016.5 24.6
2017-Nov-16 15:00N 23°02' W 145°38'2 1.7 1015.8 24.6
2017-Nov-16 14:00N 23°02' W 145°37'0 0.0 1015.8 24.6
2017-Nov-16 13:00N 23°02' W 145°37'5 4.6 1015.7 24.6
2017-Nov-16 12:00N 23°04' W 145°32'2 0.4 1016.0 24.6
2017-Nov-16 07:00N 23°04' W 145°30'0 0.0 1017.0 24.6
2017-Nov-16 06:00N 23°04' W 145°30'1 0.6 1016.8 24.7
2017-Nov-16 05:00N 23°05' W 145°30'1 0.8 1016.5 24.7
2017-Nov-16 04:00N 23°05' W 145°29'1 0.6 1016.0 24.7
2017-Nov-16 03:00N 23°06' W 145°29'1 1.3 1015.1 24.8
2017-Nov-16 02:00N 23°07' W 145°29'0 0.0 1014.7 24.8
2017-Nov-16 00:00N 23°07' W 145°29'3 2.6 1014.4 24.8
2017-Nov-15 23:00N 23°10' W 145°28'1 0.2 1014.6 24.8
2017-Nov-15 19:00N 23°10' W 145°28'1 0.6 1017.0 24.6
2017-Nov-15 18:00N 23°10' W 145°28'1 0.8 1016.7 24.6
2017-Nov-15 17:00N 23°11' W 145°28'1 0.6 1016.3 24.6
2017-Nov-15 16:00N 23°10' W 145°28'1 0.8 1015.7 24.6
2017-Nov-15 15:00N 23°11' W 145°27'0 0.0 1015.2 24.6
2017-Nov-15 14:00N 23°11' W 145°27'1 0.6 1014.9 24.6
2017-Nov-15 13:00N 23°11' W 145°28'2 1.6 1014.9 24.6
2017-Nov-15 12:00N 23°12' W 145°26'0 0.0 1014.9 24.8
2017-Nov-15 08:00N 23°12' W 145°26'1 0.8 1016.2 25.1
2017-Nov-15 07:00N 23°13' W 145°26'1 1.3 1016.0 25.1
2017-Nov-15 06:00N 23°14' W 145°25'0 0.0 1016.0 25.1
2017-Nov-15 05:00N 23°14' W 145°25'1 0.6 1015.6 25.1
2017-Nov-15 04:00N 23°14' W 145°25'1 0.6 1014.8 25.2
2017-Nov-15 03:00N 23°15' W 145°25'0 0.0 1014.1 25.4
2017-Nov-15 02:00N 23°15' W 145°25'2 1.8 1013.6 25.9
2017-Nov-15 01:00N 23°17' W 145°25'0 0.0 1013.5 26.2
2017-Nov-15 00:00N 23°17' W 145°25'0 0.0 1013.4 26.4
2017-Nov-14 22:00N 23°17' W 145°25'0 0.0 1014.6 26.9
2017-Nov-14 20:00N 23°17' W 145°25'1 0.6 1016.3 25.5
2017-Nov-14 19:00N 23°17' W 145°25'0 0.0 1016.8 25.2
2017-Nov-14 18:00N 23°17' W 145°25'0 0.0 1016.6 25.0
2017-Nov-14 17:00N 23°17' W 145°25'1 0.6 1016.0 25.0
2017-Nov-14 16:00N 23°17' W 145°25'1 1.1 1015.6 25.0
2017-Nov-14 15:00N 23°17' W 145°24'0 0.0 1015.0 25.0
2017-Nov-14 14:00N 23°17' W 145°24'2 0.8 1014.7 25.0
2017-Nov-14 11:00N 23°14' W 145°23'0 0.0 1015.2 25.1
2017-Nov-14 07:00N 23°14' W 145°23'1 0.8 1016.0 25.2
2017-Nov-14 06:00N 23°14' W 145°24'1 0.8 1015.8 25.2
2017-Nov-14 05:00N 23°14' W 145°25'1 0.8 1015.2 25.2
2017-Nov-14 04:00N 23°14' W 145°24'1 0.6 1014.4 25.2
2017-Nov-14 03:00N 23°14' W 145°25'1 1.3 1013.8 25.3
2017-Nov-14 02:00N 23°13' W 145°24'0 0.0 1013.5 25.5
2017-Nov-14 01:00N 23°13' W 145°24'0 0.0 1013.5 25.8
2017-Nov-14 00:00N 23°13' W 145°24'0 0.0 1013.3 25.7
2017-Nov-13 23:00N 23°13' W 145°24'0 0.0 1013.6 25.4
2017-Nov-13 22:00N 23°13' W 145°24'1 0.3 1014.3 25.3
2017-Nov-13 20:00N 23°12' W 145°24'1 0.6 1015.5 25.1
2017-Nov-13 19:00N 23°12' W 145°25'1 0.6 1015.6 24.9
2017-Nov-13 18:00N 23°12' W 145°25'1 0.6 1015.8 24.9
2017-Nov-13 17:00N 23°11' W 145°25'1 0.8 1015.0 24.7
2017-Nov-13 16:00N 23°11' W 145°25'1 0.6 1014.8 24.7
2017-Nov-13 15:00N 23°11' W 145°25'1 0.6 1014.6 24.9
2017-Nov-13 14:00N 23°11' W 145°25'0 0.0 1013.6 24.9
2017-Nov-13 13:00N 23°11' W 145°25'0 0.0 1013.4 24.9
2017-Nov-13 12:00N 23°11' W 145°25'2 1.8 1014.4 24.8
2017-Nov-13 11:00N 23°10' W 145°23'0 0.0 1014.4 24.8
2017-Nov-13 08:00N 23°10' W 145°23'1 0.8 1016.3 24.7
2017-Nov-13 07:00N 23°10' W 145°22'0 0.0 1016.0 24.6
2017-Nov-13 06:00N 23°10' W 145°22'1 0.6 1015.8 24.7
2017-Nov-13 05:00N 23°10' W 145°22'1 0.6 1015.7 24.5
2017-Nov-13 04:00N 23°10' W 145°22'2 1.6 1015.1 24.6
2017-Nov-13 03:00N 23°08' W 145°21'0 0.0 1014.4 24.6
2017-Nov-13 02:00N 23°08' W 145°21'1 0.6 1013.9 24.6
2017-Nov-13 01:00N 23°08' W 145°22'1 1.3 1013.7 24.6
2017-Nov-13 00:00N 23°07' W 145°21'0 0.0 1013.7 24.6
2017-Nov-12 23:00N 23°07' W 145°21'2 0.7 1014.4 24.6
2017-Nov-12 20:00N 23°06' W 145°19'0 0.0 1016.3 24.6
2017-Nov-12 19:00N 23°06' W 145°19'1 0.6 1017.1 24.5
2017-Nov-12 18:00N 23°06' W 145°19'1 0.6 1017.0 24.5
2017-Nov-12 17:00N 23°05' W 145°19'1 0.8 1016.4 24.5
2017-Nov-12 16:00N 23°05' W 145°18'1 0.6 1016.0 24.5
2017-Nov-12 15:00N 23°05' W 145°17'1 1.1 1015.5 24.5
2017-Nov-12 14:00N 23°05' W 145°16'0 0.0 1015.4 24.5
2017-Nov-12 13:00N 23°05' W 145°16'0 0.0 1015.7 24.5
2017-Nov-12 12:00N 23°05' W 145°16'2 1.7 1015.7 24.5
2017-Nov-12 11:00N 23°05' W 145°14'1 0.1 1016.0 24.5
2017-Nov-12 07:00N 23°05' W 145°14'0 0.0 1017.1 24.5
2017-Nov-12 06:00N 23°05' W 145°14'1 0.6 1017.0 24.5
2017-Nov-12 05:00N 23°05' W 145°14'1 0.8 1016.6 24.6
2017-Nov-12 04:00N 23°05' W 145°14'2 1.7 1016.2 24.6
2017-Nov-12 03:00N 23°05' W 145°13'0 0.0 1015.6 24.6
2017-Nov-12 02:00N 23°05' W 145°13'0 0.0 1015.0 24.6
2017-Nov-12 01:00N 23°05' W 145°13'1 0.8 1014.6 24.7
2017-Nov-12 00:00N 23°04' W 145°12'1 0.6 1014.6 24.7
2017-Nov-11 23:00N 23°05' W 145°12'1 0.4 1015.1 24.7
2017-Nov-11 20:00N 23°05' W 145°11'1 1.3 1017.5 24.6
2017-Nov-11 19:00N 23°04' W 145°10'0 0.0 1017.9 24.6
2017-Nov-11 18:00N 23°04' W 145°10'0 0.0 1017.7 24.5
2017-Nov-11 17:00N 23°04' W 145°10'1 1.1 1017.5 24.5
2017-Nov-11 16:00N 23°04' W 145°08'0 0.0 1017.1 24.5
2017-Nov-11 15:00N 23°04' W 145°08'0 0.0 1016.4 24.6
2017-Nov-11 14:00N 23°04' W 145°08'1 0.8 1016.2 24.6
2017-Nov-11 13:00N 23°05' W 145°08'0 0.0 1016.5 24.6
2017-Nov-11 12:00N 23°05' W 145°08'1 1.3 1016.7 24.6
2017-Nov-11 11:00N 23°05' W 145°07'1 0.1 1017.2 24.6
2017-Nov-11 07:00N 23°05' W 145°06'1 0.6 1018.2 24.7
2017-Nov-11 06:00N 23°06' W 145°06'0 0.0 1018.1 24.7
2017-Nov-11 05:00N 23°06' W 145°06'1 1.1 1018.0 24.7
2017-Nov-11 04:00N 23°06' W 145°05'0 0.0 1017.2 24.7
2017-Nov-11 03:00N 23°06' W 145°05'1 0.6 1016.7 24.8
2017-Nov-11 02:00N 23°06' W 145°04'0 0.0 1016.2 24.8
2017-Nov-11 01:00N 23°06' W 145°04'3 2.6 1016.1 24.8
2017-Nov-11 00:00N 23°08' W 145°03'2 1.8 1016.3 24.8
2017-Nov-10 23:00N 23°07' W 145°03'2 0.6 1016.5 24.8
2017-Nov-10 20:00N 23°08' W 145°02'1 0.8 1018.5 24.6
2017-Nov-10 19:00N 23°08' W 145°03'1 0.6 1018.7 24.6
2017-Nov-10 18:00N 23°08' W 145°02'0 0.0 1018.6 24.5
2017-Nov-10 17:00N 23°08' W 145°02'0 0.0 1018.0 24.5
2017-Nov-10 16:00N 23°08' W 145°02'1 1.1 1017.2 24.5
2017-Nov-10 15:00N 23°08' W 145°01'0 0.0 1016.6 24.5
2017-Nov-10 14:00N 23°08' W 145°01'1 0.6 1016.4 24.5
2017-Nov-10 13:00N 23°08' W 145°01'0 0.0 1016.5 24.6
2017-Nov-10 12:00N 23°08' W 145°01'1 0.3 1016.6 24.6
2017-Nov-10 08:00N 23°07' W 144°59'1 0.6 1018.3 24.6
2017-Nov-10 07:00N 23°07' W 144°59'1 0.8 1018.6 24.6
2017-Nov-10 06:00N 23°08' W 144°58'1 0.6 1018.7 24.7
2017-Nov-10 05:00N 23°08' W 144°58'1 0.6 1018.1 24.7
2017-Nov-10 04:00N 23°08' W 144°58'0 0.0 1017.7 24.7
2017-Nov-10 03:00N 23°08' W 144°58'1 1.3 1017.2 24.7
2017-Nov-10 02:00N 23°09' W 144°56'0 0.0 1016.9 24.8
2017-Nov-10 01:00N 23°09' W 144°56'0 0.0 1016.7 24.8
2017-Nov-10 00:00N 23°09' W 144°56'0 0.0 1016.5 24.8
2017-Nov-09 23:00N 23°09' W 144°56'1 0.4 1016.5 24.8
2017-Nov-09 20:00N 23°09' W 144°55'1 0.8 1018.3 24.7
2017-Nov-09 19:00N 23°10' W 144°55'0 0.0 1018.6 24.7
2017-Nov-09 18:00N 23°10' W 144°55'1 0.6 1018.1 24.7
2017-Nov-09 17:00N 23°10' W 144°54'1 0.6 1017.8 24.7
2017-Nov-09 16:00N 23°10' W 144°53'1 0.8 1017.5 24.7
2017-Nov-09 15:00N 23°10' W 144°53'0 0.0 1017.1 24.6
2017-Nov-09 14:00N 23°10' W 144°53'0 0.0 1016.8 24.6
2017-Nov-09 13:00N 23°10' W 144°53'1 0.6 1016.8 24.6
2017-Nov-09 12:00N 23°10' W 144°53'2 0.4 1017.1 24.6
2017-Nov-09 06:00N 23°12' W 144°52'0 0.0 1017.7 24.6
2017-Nov-09 05:00N 23°12' W 144°52'1 0.8 1017.3 24.7
2017-Nov-09 04:00N 23°13' W 144°52'1 0.6 1016.8 24.7
2017-Nov-09 03:00N 23°13' W 144°52'0 0.0 1016.6 24.7
2017-Nov-09 02:00N 23°13' W 144°52'1 0.6 1016.2 24.8
2017-Nov-09 01:00N 23°14' W 144°52'0 0.0 1016.2 24.9
2017-Nov-09 00:00N 23°14' W 144°52'0 0.0 1016.2 25.0
2017-Nov-08 23:00N 23°14' W 144°52'1 0.4 1016.6 25.0
2017-Nov-08 20:00N 23°14' W 144°50'0 0.0 1018.6 24.7
2017-Nov-08 19:00N 23°14' W 144°50'1 0.6 1019.0 24.6
2017-Nov-08 18:00N 23°15' W 144°50'0 0.0 1018.8 24.6
2017-Nov-08 17:00N 23°15' W 144°50'1 0.6 1018.6 24.6
2017-Nov-08 16:00N 23°16' W 144°50'1 0.8 1018.3 24.6
2017-Nov-08 15:00N 23°16' W 144°50'1 0.6 1017.8 24.6
2017-Nov-08 14:00N 23°16' W 144°49'   1017.6 24.6
Track history (hours):
 
Tides and Currents Weather Stations Pressure Air Temp Water Temp Dewpoint Dewpoint Depression Visibility Wind Speed Wind Dir Waves Ship Positions

Drifting buoy 21530

Last reported at 2017-Nov-18 14:00 UTC. Time now 2017-Nov-18 15:34 UTC.
Position N 23°25' W 146°16'.

Barometer 1011.2 mb
Water temperature 24.8 ° C

Date/timePositionNaut miles runAvg speedWind from/ knotsBaromVisibWave heightAir tempDewpointWater temp
2017-Nov-18 14:00N 23°25' W 146°16'1 0.3 1011.2 24.8
2017-Nov-18 12:00N 23°24' W 146°16'5 1.1 1011.3 24.9
2017-Nov-18 07:00N 23°20' W 146°11'1 1.1 1014.3 24.9
2017-Nov-18 06:00N 23°20' W 146°10'1 1.3 1014.3 24.9
2017-Nov-18 05:00N 23°20' W 146°09'1 0.6 1014.1 24.9
2017-Nov-18 04:00N 23°20' W 146°08'2 2.3 1013.6 24.8
2017-Nov-18 03:00N 23°19' W 146°06'0 0.0 1013.6 24.8
2017-Nov-18 02:00N 23°19' W 146°06'2 2.0 1013.0 24.7
2017-Nov-18 01:00N 23°18' W 146°04'1 0.6 1013.1 24.8
2017-Nov-18 00:00N 23°18' W 146°05'0 0.0 1013.3 24.8
2017-Nov-17 23:00N 23°18' W 146°05'7 1.7 1014.1 24.8
2017-Nov-17 19:00N 23°15' W 145°58'1 1.1 1016.8 24.8
2017-Nov-17 18:00N 23°15' W 145°57'1 0.8 1016.3 24.8
2017-Nov-17 17:00N 23°14' W 145°56'1 0.6 1015.8 24.8
2017-Nov-17 16:00N 23°14' W 145°56'1 1.3 1015.2 24.8
2017-Nov-17 15:00N 23°14' W 145°55'1 0.8 1014.8 24.8
2017-Nov-17 14:00N 23°13' W 145°54'0 0.0 1015.0 24.8
2017-Nov-17 13:00N 23°13' W 145°54'4 4.2 1015.1 24.8
2017-Nov-17 12:00N 23°10' W 145°52'0 0.0 1015.6 24.9
2017-Nov-17 07:00N 23°10' W 145°52'2 1.6 1017.8 24.7
2017-Nov-17 06:00N 23°08' W 145°50'1 0.6 1017.6 24.7
2017-Nov-17 05:00N 23°08' W 145°50'2 1.6 1017.3 24.6
2017-Nov-17 04:00N 23°07' W 145°49'1 1.3 1016.6 24.6
2017-Nov-17 03:00N 23°06' W 145°48'0 0.0 1016.0 24.6
2017-Nov-17 02:00N 23°06' W 145°48'1 1.3 1015.6 24.6
2017-Nov-17 01:00N 23°05' W 145°47'1 0.8 1015.4 24.6
2017-Nov-17 00:00N 23°05' W 145°47'4 1.0 1015.4 24.6
2017-Nov-16 20:00N 23°04' W 145°43'1 1.3 1017.9 24.5
2017-Nov-16 19:00N 23°04' W 145°42'1 0.6 1018.1 24.5
2017-Nov-16 18:00N 23°04' W 145°41'1 0.8 1017.5 24.5
2017-Nov-16 17:00N 23°03' W 145°41'2 1.7 1016.9 24.5
2017-Nov-16 16:00N 23°03' W 145°39'1 0.8 1016.5 24.6
2017-Nov-16 15:00N 23°02' W 145°38'2 1.7 1015.8 24.6
2017-Nov-16 14:00N 23°02' W 145°37'0 0.0 1015.8 24.6
2017-Nov-16 13:00N 23°02' W 145°37'5 4.6 1015.7 24.6
2017-Nov-16 12:00N 23°04' W 145°32'2 0.4 1016.0 24.6
2017-Nov-16 07:00N 23°04' W 145°30'0 0.0 1017.0 24.6
2017-Nov-16 06:00N 23°04' W 145°30'1 0.6 1016.8 24.7
2017-Nov-16 05:00N 23°05' W 145°30'1 0.8 1016.5 24.7
2017-Nov-16 04:00N 23°05' W 145°29'1 0.6 1016.0 24.7
2017-Nov-16 03:00N 23°06' W 145°29'1 1.3 1015.1 24.8
2017-Nov-16 02:00N 23°07' W 145°29'0 0.0 1014.7 24.8
2017-Nov-16 00:00N 23°07' W 145°29'3 2.6 1014.4 24.8
2017-Nov-15 23:00N 23°10' W 145°28'1 0.2 1014.6 24.8
2017-Nov-15 19:00N 23°10' W 145°28'1 0.6 1017.0 24.6
2017-Nov-15 18:00N 23°10' W 145°28'1 0.8 1016.7 24.6
2017-Nov-15 17:00N 23°11' W 145°28'1 0.6 1016.3 24.6
2017-Nov-15 16:00N 23°10' W 145°28'1 0.8 1015.7 24.6
2017-Nov-15 15:00N 23°11' W 145°27'0 0.0 1015.2 24.6
2017-Nov-15 14:00N 23°11' W 145°27'1 0.6 1014.9 24.6
2017-Nov-15 13:00N 23°11' W 145°28'2 1.6 1014.9 24.6
2017-Nov-15 12:00N 23°12' W 145°26'0 0.0 1014.9 24.8
2017-Nov-15 08:00N 23°12' W 145°26'1 0.8 1016.2 25.1
2017-Nov-15 07:00N 23°13' W 145°26'1 1.3 1016.0 25.1
2017-Nov-15 06:00N 23°14' W 145°25'0 0.0 1016.0 25.1
2017-Nov-15 05:00N 23°14' W 145°25'1 0.6 1015.6 25.1
2017-Nov-15 04:00N 23°14' W 145°25'1 0.6 1014.8 25.2
2017-Nov-15 03:00N 23°15' W 145°25'0 0.0 1014.1 25.4
2017-Nov-15 02:00N 23°15' W 145°25'2 1.8 1013.6 25.9
2017-Nov-15 01:00N 23°17' W 145°25'0 0.0 1013.5 26.2
2017-Nov-15 00:00N 23°17' W 145°25'0 0.0 1013.4 26.4
2017-Nov-14 22:00N 23°17' W 145°25'0 0.0 1014.6 26.9
2017-Nov-14 20:00N 23°17' W 145°25'1 0.6 1016.3 25.5
2017-Nov-14 19:00N 23°17' W 145°25'0 0.0 1016.8 25.2
2017-Nov-14 18:00N 23°17' W 145°25'0 0.0 1016.6 25.0
2017-Nov-14 17:00N 23°17' W 145°25'1 0.6 1016.0 25.0
2017-Nov-14 16:00N 23°17' W 145°25'1 1.1 1015.6 25.0
2017-Nov-14 15:00N 23°17' W 145°24'0 0.0 1015.0 25.0
2017-Nov-14 14:00N 23°17' W 145°24'2 0.8 1014.7 25.0
2017-Nov-14 11:00N 23°14' W 145°23'0 0.0 1015.2 25.1
2017-Nov-14 07:00N 23°14' W 145°23'1 0.8 1016.0 25.2
2017-Nov-14 06:00N 23°14' W 145°24'1 0.8 1015.8 25.2
2017-Nov-14 05:00N 23°14' W 145°25'1 0.8 1015.2 25.2
2017-Nov-14 04:00N 23°14' W 145°24'1 0.6 1014.4 25.2
2017-Nov-14 03:00N 23°14' W 145°25'1 1.3 1013.8 25.3
2017-Nov-14 02:00N 23°13' W 145°24'0 0.0 1013.5 25.5
2017-Nov-14 01:00N 23°13' W 145°24'0 0.0 1013.5 25.8
2017-Nov-14 00:00N 23°13' W 145°24'0 0.0 1013.3 25.7
2017-Nov-13 23:00N 23°13' W 145°24'0 0.0 1013.6 25.4
2017-Nov-13 22:00N 23°13' W 145°24'1 0.3 1014.3 25.3
2017-Nov-13 20:00N 23°12' W 145°24'1 0.6 1015.5 25.1
2017-Nov-13 19:00N 23°12' W 145°25'1 0.6 1015.6 24.9
2017-Nov-13 18:00N 23°12' W 145°25'1 0.6 1015.8 24.9
2017-Nov-13 17:00N 23°11' W 145°25'1 0.8 1015.0 24.7
2017-Nov-13 16:00N 23°11' W 145°25'1 0.6 1014.8 24.7
2017-Nov-13 15:00N 23°11' W 145°25'1 0.6 1014.6 24.9
2017-Nov-13 14:00N 23°11' W 145°25'0 0.0 1013.6 24.9
2017-Nov-13 13:00N 23°11' W 145°25'0 0.0 1013.4 24.9
2017-Nov-13 12:00N 23°11' W 145°25'2 1.8 1014.4 24.8
2017-Nov-13 11:00N 23°10' W 145°23'0 0.0 1014.4 24.8
2017-Nov-13 08:00N 23°10' W 145°23'1 0.8 1016.3 24.7
2017-Nov-13 07:00N 23°10' W 145°22'0 0.0 1016.0 24.6
2017-Nov-13 06:00N 23°10' W 145°22'1 0.6 1015.8 24.7
2017-Nov-13 05:00N 23°10' W 145°22'1 0.6 1015.7 24.5
2017-Nov-13 04:00N 23°10' W 145°22'2 1.6 1015.1 24.6
2017-Nov-13 03:00N 23°08' W 145°21'0 0.0 1014.4 24.6
2017-Nov-13 02:00N 23°08' W 145°21'1 0.6 1013.9 24.6
2017-Nov-13 01:00N 23°08' W 145°22'1 1.3 1013.7 24.6
2017-Nov-13 00:00N 23°07' W 145°21'0 0.0 1013.7 24.6
2017-Nov-12 23:00N 23°07' W 145°21'2 0.7 1014.4 24.6
2017-Nov-12 20:00N 23°06' W 145°19'0 0.0 1016.3 24.6
2017-Nov-12 19:00N 23°06' W 145°19'1 0.6 1017.1 24.5
2017-Nov-12 18:00N 23°06' W 145°19'1 0.6 1017.0 24.5
2017-Nov-12 17:00N 23°05' W 145°19'1 0.8 1016.4 24.5
2017-Nov-12 16:00N 23°05' W 145°18'1 0.6 1016.0 24.5
2017-Nov-12 15:00N 23°05' W 145°17'1 1.1 1015.5 24.5
2017-Nov-12 14:00N 23°05' W 145°16'0 0.0 1015.4 24.5
2017-Nov-12 13:00N 23°05' W 145°16'0 0.0 1015.7 24.5
2017-Nov-12 12:00N 23°05' W 145°16'2 1.7 1015.7 24.5
2017-Nov-12 11:00N 23°05' W 145°14'1 0.1 1016.0 24.5
2017-Nov-12 07:00N 23°05' W 145°14'0 0.0 1017.1 24.5
2017-Nov-12 06:00N 23°05' W 145°14'1 0.6 1017.0 24.5
2017-Nov-12 05:00N 23°05' W 145°14'1 0.8 1016.6 24.6
2017-Nov-12 04:00N 23°05' W 145°14'2 1.7 1016.2 24.6
2017-Nov-12 03:00N 23°05' W 145°13'0 0.0 1015.6 24.6
2017-Nov-12 02:00N 23°05' W 145°13'0 0.0 1015.0 24.6
2017-Nov-12 01:00N 23°05' W 145°13'1 0.8 1014.6 24.7
2017-Nov-12 00:00N 23°04' W 145°12'1 0.6 1014.6 24.7
2017-Nov-11 23:00N 23°05' W 145°12'1 0.4 1015.1 24.7
2017-Nov-11 20:00N 23°05' W 145°11'1 1.3 1017.5 24.6
2017-Nov-11 19:00N 23°04' W 145°10'0 0.0 1017.9 24.6
2017-Nov-11 18:00N 23°04' W 145°10'0 0.0 1017.7 24.5
2017-Nov-11 17:00N 23°04' W 145°10'1 1.1 1017.5 24.5
2017-Nov-11 16:00N 23°04' W 145°08'0 0.0 1017.1 24.5
2017-Nov-11 15:00N 23°04' W 145°08'0 0.0 1016.4 24.6
2017-Nov-11 14:00N 23°04' W 145°08'1 0.8 1016.2 24.6
2017-Nov-11 13:00N 23°05' W 145°08'0 0.0 1016.5 24.6
2017-Nov-11 12:00N 23°05' W 145°08'1 1.3 1016.7 24.6
2017-Nov-11 11:00N 23°05' W 145°07'1 0.1 1017.2 24.6
2017-Nov-11 07:00N 23°05' W 145°06'1 0.6 1018.2 24.7
2017-Nov-11 06:00N 23°06' W 145°06'0 0.0 1018.1 24.7
2017-Nov-11 05:00N 23°06' W 145°06'1 1.1 1018.0 24.7
2017-Nov-11 04:00N 23°06' W 145°05'0 0.0 1017.2 24.7
2017-Nov-11 03:00N 23°06' W 145°05'1 0.6 1016.7 24.8
2017-Nov-11 02:00N 23°06' W 145°04'0 0.0 1016.2 24.8
2017-Nov-11 01:00N 23°06' W 145°04'3 2.6 1016.1 24.8
2017-Nov-11 00:00N 23°08' W 145°03'2 1.8 1016.3 24.8
2017-Nov-10 23:00N 23°07' W 145°03'2 0.6 1016.5 24.8
2017-Nov-10 20:00N 23°08' W 145°02'1 0.8 1018.5 24.6
2017-Nov-10 19:00N 23°08' W 145°03'1 0.6 1018.7 24.6
2017-Nov-10 18:00N 23°08' W 145°02'0 0.0 1018.6 24.5
2017-Nov-10 17:00N 23°08' W 145°02'0 0.0 1018.0 24.5
2017-Nov-10 16:00N 23°08' W 145°02'1 1.1 1017.2 24.5
2017-Nov-10 15:00N 23°08' W 145°01'0 0.0 1016.6 24.5
2017-Nov-10 14:00N 23°08' W 145°01'1 0.6 1016.4 24.5
2017-Nov-10 13:00N 23°08' W 145°01'0 0.0 1016.5 24.6
2017-Nov-10 12:00N 23°08' W 145°01'1 0.3 1016.6 24.6
2017-Nov-10 08:00N 23°07' W 144°59'1 0.6 1018.3 24.6
2017-Nov-10 07:00N 23°07' W 144°59'1 0.8 1018.6 24.6
2017-Nov-10 06:00N 23°08' W 144°58'1 0.6 1018.7 24.7
2017-Nov-10 05:00N 23°08' W 144°58'1 0.6 1018.1 24.7
2017-Nov-10 04:00N 23°08' W 144°58'0 0.0 1017.7 24.7
2017-Nov-10 03:00N 23°08' W 144°58'1 1.3 1017.2 24.7
2017-Nov-10 02:00N 23°09' W 144°56'0 0.0 1016.9 24.8
2017-Nov-10 01:00N 23°09' W 144°56'0 0.0 1016.7 24.8
2017-Nov-10 00:00N 23°09' W 144°56'0 0.0 1016.5 24.8
2017-Nov-09 23:00N 23°09' W 144°56'1 0.4 1016.5 24.8
2017-Nov-09 20:00N 23°09' W 144°55'1 0.8 1018.3 24.7
2017-Nov-09 19:00N 23°10' W 144°55'0 0.0 1018.6 24.7
2017-Nov-09 18:00N 23°10' W 144°55'1 0.6 1018.1 24.7
2017-Nov-09 17:00N 23°10' W 144°54'1 0.6 1017.8 24.7
2017-Nov-09 16:00N 23°10' W 144°53'1 0.8 1017.5 24.7
2017-Nov-09 15:00N 23°10' W 144°53'0 0.0 1017.1 24.6
2017-Nov-09 14:00N 23°10' W 144°53'0 0.0 1016.8 24.6
2017-Nov-09 13:00N 23°10' W 144°53'1 0.6 1016.8 24.6
2017-Nov-09 12:00N 23°10' W 144°53'2 0.4 1017.1 24.6
2017-Nov-09 06:00N 23°12' W 144°52'0 0.0 1017.7 24.6
2017-Nov-09 05:00N 23°12' W 144°52'1 0.8 1017.3 24.7
2017-Nov-09 04:00N 23°13' W 144°52'1 0.6 1016.8 24.7
2017-Nov-09 03:00N 23°13' W 144°52'0 0.0 1016.6 24.7
2017-Nov-09 02:00N 23°13' W 144°52'1 0.6 1016.2 24.8
2017-Nov-09 01:00N 23°14' W 144°52'0 0.0 1016.2 24.9
2017-Nov-09 00:00N 23°14' W 144°52'0 0.0 1016.2 25.0
2017-Nov-08 23:00N 23°14' W 144°52'1 0.4 1016.6 25.0
2017-Nov-08 20:00N 23°14' W 144°50'0 0.0 1018.6 24.7
2017-Nov-08 19:00N 23°14' W 144°50'1 0.6 1019.0 24.6
2017-Nov-08 18:00N 23°15' W 144°50'0 0.0 1018.8 24.6
2017-Nov-08 17:00N 23°15' W 144°50'1 0.6 1018.6 24.6
2017-Nov-08 16:00N 23°16' W 144°50'1 0.8 1018.3 24.6
2017-Nov-08 15:00N 23°16' W 144°50'1 0.6 1017.8 24.6
2017-Nov-08 14:00N 23°16' W 144°49'   1017.6 24.6

Dump ship's entire track history